Terminal Aerodrome Forecast
Issued by NWS Anchorage, AK

Home | Current Version | Previous Version | Text Only | Print | Product List | Glossary On
Versions: 1 2 3 4 5 6 7 8 9 10 11 12 13 14 15 16 17 18 19 20
000
FTAK31 PANC 010056 AAB
TAFANC
TAF AMD
PANC 010056Z 0101/0206 01011KT P6SM VCSH SCT050 BKN080 OVC100
     FM010300 16007KT P6SM VCSH SCT040 BKN070
     FM012100 16015G25KT P6SM VCSH SCT040 BKN060=

USA.gov is the U.S. government's official web portal to all federal, state and local government web resources and services.